Time;durP1;ratioP1;P1;durP2;ratioP2;P2;SDS_P1;SDS_P2;PMS_P1;PMS_P2;Temp;Humidity;BMP_temperature;BMP_pressure;BME280_temperature;BME280_humidity;BME280_pressure;Samples;Min_cycle;Max_cycle;Signal;HPM_P1;HPM_P2
2023/08/23 00:02:24;;;;;;;6.03;5.57;;;;;;;24.52;57.17;98213.09;5053967;28;20545;-76
2023/08/23 00:04:53;;;;;;;5.97;5.50;;;;;;;24.50;57.27;98211.72;5052624;28;20550;-76
2023/08/23 00:07:20;;;;;;;6.47;5.97;;;;;;;24.42;57.39;98210.41;5051410;28;20485;-76
2023/08/23 00:09:46;;;;;;;6.17;5.67;;;;;;;24.33;57.99;98207.44;5055611;28;20576;-77
2023/08/23 00:12:14;;;;;;;6.47;5.97;;;;;;;24.41;57.58;98204.03;5060577;28;20928;-76
2023/08/23 00:14:41;;;;;;;6.10;5.60;;;;;;;24.17;58.10;98196.72;5056378;28;20919;-76
2023/08/23 00:17:08;;;;;;;5.47;5.07;;;;;;;24.19;58.65;98186.19;5073085;28;20462;-76
2023/08/23 00:19:35;;;;;;;5.53;5.13;;;;;;;24.32;58.27;98205.78;5056333;28;20807;-77
2023/08/23 00:22:03;;;;;;;7.50;5.50;;;;;;;24.25;58.44;98196.16;5054938;28;20461;-76
2023/08/23 00:24:30;;;;;;;6.30;5.80;;;;;;;24.33;58.15;98201.91;5056979;28;20551;-76
2023/08/23 00:26:57;;;;;;;5.80;5.30;;;;;;;24.18;58.42;98196.44;5059201;28;20478;-77
2023/08/23 00:29:24;;;;;;;5.40;5.00;;;;;;;24.12;59.05;98206.69;5064509;28;20464;-76
2023/08/23 00:31:50;;;;;;;5.83;5.43;;;;;;;24.20;58.71;98198.91;5055662;28;20447;-76
2023/08/23 00:34:17;;;;;;;6.17;5.60;;;;;;;24.01;59.34;98198.75;5058725;28;21041;-76
2023/08/23 00:36:45;;;;;;;6.37;5.77;;;;;;;24.07;59.02;98203.13;5052204;28;20897;-77
2023/08/23 00:39:13;;;;;;;7.90;5.53;;;;;;;24.25;58.72;98198.91;5059984;28;20459;-77
2023/08/23 00:41:40;;;;;;;6.37;5.77;;;;;;;24.23;58.40;98184.50;5053843;28;20526;-76
2023/08/23 00:44:07;;;;;;;5.70;5.40;;;;;;;24.25;58.44;98187.84;5060176;28;20483;-76
2023/08/23 00:46:34;;;;;;;5.97;5.37;;;;;;;24.21;58.54;98186.72;5052476;28;20480;-77
2023/08/23 00:49:01;;;;;;;5.77;5.10;;;;;;;24.21;58.92;98186.72;5063898;28;20537;-76
2023/08/23 00:51:28;;;;;;;6.10;5.60;;;;;;;24.21;59.06;98183.97;5050514;28;20601;-76
2023/08/23 00:53:54;;;;;;;6.03;5.60;;;;;;;24.18;58.77;98185.34;5052275;28;20526;-76
2023/08/23 00:56:22;;;;;;;6.30;5.70;;;;;;;24.19;58.85;98183.41;5066424;28;20530;-77
2023/08/23 00:58:50;;;;;;;6.40;5.87;;;;;;;24.15;58.92;98190.63;5065233;28;20505;-76
2023/08/23 01:01:16;;;;;;;7.03;6.43;;;;;;;24.08;59.47;98189.00;5053833;28;20518;-77
2023/08/23 01:03:43;;;;;;;6.03;5.63;;;;;;;23.91;59.98;98190.50;5053254;28;20532;-76
2023/08/23 01:06:19;;;;;;;6.73;6.23;;;;;;;23.92;59.54;98195.75;5053772;28;21054;-78
2023/08/23 01:08:51;;;;;;;6.10;5.60;;;;;;;23.79;60.34;98190.84;5052859;28;20486;-77
2023/08/23 01:11:27;;;;;;;7.13;6.53;;;;;;;23.76;60.29;98191.41;5062667;28;20509;-76
2023/08/23 01:14:00;;;;;;;6.17;5.67;;;;;;;23.58;61.04;98190.13;5053097;28;20543;-76
2023/08/23 01:16:27;;;;;;;5.93;5.53;;;;;;;23.71;60.68;98191.44;5060318;28;21185;-76
2023/08/23 01:18:55;;;;;;;6.57;6.17;;;;;;;23.89;60.02;98189.97;5052958;28;20549;-77
2023/08/23 01:21:26;;;;;;;6.97;6.30;;;;;;;23.67;60.74;98188.44;5054411;28;21014;-76
2023/08/23 01:23:55;;;;;;;7.00;6.40;;;;;;;23.64;60.70;98186.22;5056189;28;20487;-76
2023/08/23 01:26:21;;;;;;;6.13;5.63;;;;;;;23.57;61.11;98193.16;5052161;28;20876;-77
2023/08/23 01:28:51;;;;;;;7.40;5.80;;;;;;;23.57;61.02;98187.63;5060610;28;20802;-77
2023/08/23 01:31:20;;;;;;;7.43;6.73;;;;;;;23.66;61.13;98192.28;5054456;28;20493;-77
2023/08/23 01:33:51;;;;;;;7.63;6.93;;;;;;;23.60;61.06;98193.41;5062498;28;20490;-77
2023/08/23 01:36:23;;;;;;;6.33;5.80;;;;;;;23.65;60.83;98195.34;5055424;28;20525;-77
2023/08/23 01:38:51;;;;;;;6.63;5.80;;;;;;;23.67;60.66;98195.88;5061607;28;20628;-76
2023/08/23 01:41:20;;;;;;;7.43;6.60;;;;;;;23.58;60.87;98200.34;5052842;28;20555;-77
2023/08/23 01:43:47;;;;;;;7.07;6.57;;;;;;;23.31;61.78;98193.22;5056437;28;20455;-77
2023/08/23 01:46:14;;;;;;;6.80;6.00;;;;;;;23.41;61.50;98204.22;5060332;28;21004;-77
2023/08/23 01:48:41;;;;;;;6.50;5.90;;;;;;;23.35;61.90;98208.13;5051207;28;20862;-77
2023/08/23 01:51:07;;;;;;;7.03;6.43;;;;;;;23.25;62.12;98213.66;5058362;28;20483;-77
2023/08/23 01:53:34;;;;;;;7.00;6.40;;;;;;;23.12;62.64;98208.72;5051395;28;20455;-77
2023/08/23 01:56:01;;;;;;;6.70;6.17;;;;;;;23.09;62.98;98203.75;5062333;28;20932;-78
2023/08/23 01:58:29;;;;;;;6.90;6.30;;;;;;;23.10;62.99;98197.13;5052501;28;20562;-76
2023/08/23 02:00:55;;;;;;;7.93;6.60;;;;;;;23.12;62.89;98198.50;5058196;28;20462;-76
2023/08/23 02:03:22;;;;;;;6.70;6.30;;;;;;;23.04;63.34;98201.03;5061920;28;20463;-77
2023/08/23 02:05:49;;;;;;;7.30;6.80;;;;;;;23.11;62.58;98191.31;5055077;28;21145;-76
2023/08/23 02:08:17;;;;;;;7.30;6.60;;;;;;;23.09;62.95;98198.22;5051379;28;20504;-77
2023/08/23 02:10:44;;;;;;;7.07;6.40;;;;;;;23.18;62.46;98193.78;5056069;28;20570;-77
2023/08/23 02:13:11;;;;;;;7.27;6.67;;;;;;;23.11;62.76;98196.84;5051078;28;20486;-77
2023/08/23 02:15:39;;;;;;;8.07;7.13;;;;;;;22.99;63.30;98198.25;5065228;28;20450;-77
2023/08/23 02:18:06;;;;;;;9.40;6.40;;;;;;;23.06;63.29;98196.06;5051895;28;20552;-77
2023/08/23 02:20:33;;;;;;;6.90;6.27;;;;;;;23.01;63.45;98196.06;5051650;28;20462;-77
2023/08/23 02:23:00;;;;;;;7.17;6.63;;;;;;;22.92;63.57;98192.19;5058254;28;20446;-77
2023/08/23 02:25:27;;;;;;;7.23;6.50;;;;;;;23.02;62.94;98192.19;5052099;28;20466;-77
2023/08/23 02:27:53;;;;;;;7.67;6.60;;;;;;;22.86;63.86;98187.78;5055699;28;20471;-76
2023/08/23 02:30:20;;;;;;;6.67;6.07;;;;;;;22.95;63.57;98188.88;5065005;28;20483;-77
2023/08/23 02:32:49;;;;;;;6.83;6.33;;;;;;;23.01;62.96;98191.34;5059422;28;20469;-77
2023/08/23 02:35:15;;;;;;;6.80;6.30;;;;;;;22.92;63.68;98192.19;5056908;28;20840;-78
2023/08/23 02:37:41;;;;;;;7.20;6.70;;;;;;;22.92;63.62;98192.19;5058905;28;20581;-77
2023/08/23 02:40:09;;;;;;;7.07;6.43;;;;;;;22.91;63.18;98201.59;5061695;28;20819;-76
2023/08/23 02:42:35;;;;;;;6.97;6.37;;;;;;;22.83;63.78;98200.19;5060950;28;21067;-76
2023/08/23 02:45:02;;;;;;;7.30;6.80;;;;;;;22.76;63.80;98191.34;5052585;28;20906;-77
2023/08/23 02:47:29;;;;;;;6.03;5.63;;;;;;;22.74;64.28;98190.81;5056991;28;20580;-77
2023/08/23 02:49:57;;;;;;;7.20;6.63;;;;;;;22.84;63.17;98188.06;5061014;28;20452;-77
2023/08/23 02:52:24;;;;;;;6.53;6.03;;;;;;;22.84;63.52;98184.47;5056772;28;20613;-77
2023/08/23 02:54:51;;;;;;;6.40;5.90;;;;;;;22.85;63.36;98191.66;5051298;28;20459;-77
2023/08/23 02:57:17;;;;;;;7.23;6.80;;;;;;;22.85;63.31;98181.44;5052928;28;20510;-77
2023/08/23 02:59:44;;;;;;;6.30;5.80;;;;;;;22.81;63.56;98185.84;5050834;28;20948;-76
2023/08/23 03:02:11;;;;;;;6.27;5.87;;;;;;;22.73;63.90;98178.94;5055105;28;20491;-76
2023/08/23 03:04:38;;;;;;;6.27;5.77;;;;;;;22.71;63.84;98174.81;5051355;28;20486;-77
2023/08/23 03:07:06;;;;;;;7.23;6.63;;;;;;;22.84;63.30;98178.94;5048250;28;20562;-77
2023/08/23 03:09:32;;;;;;;7.20;6.60;;;;;;;22.79;63.77;98185.28;5052229;28;20504;-77
2023/08/23 03:11:59;;;;;;;7.00;6.40;;;;;;;22.60;63.90;98190.53;5050655;28;20485;-78
2023/08/23 03:14:26;;;;;;;7.77;6.97;;;;;;;22.69;64.10;98191.63;5050082;28;20482;-77
2023/08/23 03:16:53;;;;;;;7.80;7.20;;;;;;;22.70;63.78;98196.06;5055164;28;20515;-77
2023/08/23 03:19:19;;;;;;;7.10;6.60;;;;;;;22.59;64.33;98199.91;5055397;28;20537;-77
2023/08/23 03:21:46;;;;;;;6.53;6.03;;;;;;;22.52;64.39;98195.75;5048968;28;20546;-77
2023/08/23 03:24:14;;;;;;;6.90;6.40;;;;;;;22.48;64.95;98198.25;5049471;28;20467;-78
2023/08/23 03:26:41;;;;;;;7.83;7.23;;;;;;;22.44;65.14;98197.97;5056474;28;20481;-77
2023/08/23 03:29:08;;;;;;;7.07;6.47;;;;;;;22.43;65.18;98196.31;5068260;28;20453;-76
2023/08/23 03:31:35;;;;;;;7.00;6.50;;;;;;;22.33;65.63;98195.50;5051847;28;20589;-76
2023/08/23 03:34:02;;;;;;;7.60;6.80;;;;;;;22.35;65.30;98196.03;5052133;28;20453;-77
2023/08/23 03:36:28;;;;;;;7.53;6.87;;;;;;;22.38;65.21;98184.47;5049874;28;20558;-77
2023/08/23 03:38:55;;;;;;;7.93;7.33;;;;;;;22.33;65.78;98179.78;5050006;28;20530;-77
2023/08/23 03:41:23;;;;;;;7.13;6.63;;;;;;;22.49;64.92;98177.84;5057515;28;20452;-78
2023/08/23 03:43:50;;;;;;;7.73;7.07;;;;;;;22.37;65.18;98180.06;5055843;28;20463;-76
2023/08/23 03:46:17;;;;;;;7.37;6.77;;;;;;;22.37;65.37;98177.28;5053041;28;21033;-75
2023/08/23 03:48:44;;;;;;;7.97;7.20;;;;;;;22.28;66.04;98181.69;5049543;28;21044;-77
2023/08/23 03:51:10;;;;;;;8.53;7.83;;;;;;;22.27;65.87;98169.84;5054184;28;20542;-77
2023/08/23 03:53:37;;;;;;;8.27;7.53;;;;;;;22.23;65.74;98176.16;5055647;28;20501;-77
2023/08/23 03:56:04;;;;;;;7.57;6.80;;;;;;;22.31;65.46;98186.66;5059241;28;20475;-77
2023/08/23 03:58:32;;;;;;;7.30;6.70;;;;;;;22.29;65.79;98183.34;5049691;28;20485;-77
2023/08/23 04:00:59;;;;;;;7.73;7.07;;;;;;;22.25;65.97;98182.22;5056617;28;20858;-77
2023/08/23 04:03:26;;;;;;;7.97;7.17;;;;;;;22.23;65.65;98184.44;5050942;28;20866;-76
2023/08/23 04:05:53;;;;;;;8.40;7.70;;;;;;;22.19;66.10;98188.84;5060706;28;20479;-78
2023/08/23 04:08:20;;;;;;;8.77;7.97;;;;;;;22.01;66.79;98193.78;5050488;28;20533;-77
2023/08/23 04:10:48;;;;;;;8.00;7.30;;;;;;;21.93;67.19;98199.78;5056606;28;20536;-77
2023/08/23 04:13:14;;;;;;;8.00;7.40;;;;;;;21.90;67.46;98186.56;5056644;28;20454;-77
2023/08/23 04:15:43;;;;;;;8.03;7.23;;;;;;;21.84;67.77;98195.91;5062558;28;20477;-77
2023/08/23 04:18:10;;;;;;;8.40;7.47;;;;;;;21.96;67.37;98190.97;5064627;28;20459;-78
2023/08/23 04:20:37;;;;;;;8.20;7.40;;;;;;;21.88;67.43;98190.69;5053594;28;20458;-77
2023/08/23 04:23:04;;;;;;;7.73;7.07;;;;;;;21.91;67.45;98182.69;5051977;28;20468;-77
2023/08/23 04:25:31;;;;;;;8.43;7.63;;;;;;;22.00;67.02;98180.25;5050265;28;20483;-77
2023/08/23 04:27:58;;;;;;;7.57;6.87;;;;;;;22.13;66.43;98191.59;5067582;28;20495;-78
2023/08/23 04:30:24;;;;;;;7.83;7.23;;;;;;;22.19;66.19;98188.84;5049199;28;20827;-78
2023/08/23 04:32:53;;;;;;;6.90;6.50;;;;;;;22.23;66.11;98195.47;5047744;28;20455;-78
2023/08/23 04:35:19;;;;;;;7.37;6.63;;;;;;;22.16;66.24;98186.63;5049413;28;21246;-77
2023/08/23 04:37:46;;;;;;;7.43;6.80;;;;;;;22.09;66.16;98197.94;5061410;28;20509;-78
2023/08/23 04:40:13;;;;;;;8.50;7.80;;;;;;;22.12;66.35;98200.13;5052464;28;20459;-77
2023/08/23 04:42:39;;;;;;;7.10;6.60;;;;;;;22.20;65.92;98201.53;5051668;28;20459;-78
2023/08/23 04:45:07;;;;;;;8.17;7.40;;;;;;;22.16;66.23;98201.25;5049901;28;20821;-77
2023/08/23 04:47:34;;;;;;;7.67;7.17;;;;;;;22.08;66.47;98205.38;5048583;28;20487;-77
2023/08/23 04:50:02;;;;;;;8.57;7.73;;;;;;;22.02;66.97;98209.22;5050529;28;20458;-77
2023/08/23 04:52:29;;;;;;;8.30;7.70;;;;;;;21.99;67.35;98200.63;5049964;28;20529;-75
2023/08/23 04:54:56;;;;;;;7.20;6.63;;;;;;;22.18;66.29;98195.47;5051969;28;20455;-77
2023/08/23 04:57:23;;;;;;;8.50;7.80;;;;;;;22.11;66.92;98201.22;5052602;28;20570;-78
2023/08/23 04:59:50;;;;;;;8.20;7.50;;;;;;;22.26;66.22;98208.72;5054170;28;20565;-77
2023/08/23 05:02:16;;;;;;;9.00;7.50;;;;;;;22.31;65.68;98203.22;5053684;28;20450;-77
2023/08/23 05:04:43;;;;;;;8.10;7.30;;;;;;;22.31;65.94;98206.78;5061440;28;20459;-77
2023/08/23 05:07:12;;;;;;;7.53;6.87;;;;;;;22.41;65.40;98209.56;5068140;28;20561;-76
2023/08/23 05:09:38;;;;;;;7.47;6.87;;;;;;;22.27;65.54;98213.13;5057447;28;20468;-78
2023/08/23 05:12:06;;;;;;;7.60;6.90;;;;;;;22.39;65.29;98213.72;5059183;28;20596;-77
2023/08/23 05:14:33;;;;;;;6.93;6.40;;;;;;;22.53;64.78;98209.28;5063227;28;20458;-78
2023/08/23 05:16:59;;;;;;;8.13;7.57;;;;;;;22.53;65.22;98217.56;5057864;28;20710;-78
2023/08/23 05:19:26;;;;;;;7.33;6.63;;;;;;;22.79;63.94;98210.97;5053430;28;20454;-77
2023/08/23 05:21:53;;;;;;;7.07;6.47;;;;;;;22.88;64.18;98214.00;5049884;28;20454;-77
2023/08/23 05:24:21;;;;;;;7.10;6.50;;;;;;;22.93;64.03;98218.69;5058077;28;20455;-77
2023/08/23 05:26:48;;;;;;;6.43;5.83;;;;;;;22.81;64.18;98212.63;5051132;28;20511;-77
2023/08/23 05:29:15;;;;;;;8.27;7.57;;;;;;;22.77;64.45;98218.66;5053676;28;20466;-77
2023/08/23 05:31:41;;;;;;;6.87;6.37;;;;;;;22.88;63.94;98207.66;5054352;28;20547;-76
2023/08/23 05:34:08;;;;;;;7.30;6.80;;;;;;;22.96;63.50;98207.09;5053122;28;20537;-76
2023/08/23 05:36:35;;;;;;;6.90;6.30;;;;;;;22.89;63.66;98223.13;5065755;28;20496;-75
2023/08/23 05:39:03;;;;;;;7.50;6.90;;;;;;;23.10;63.07;98221.97;5049221;28;20538;-77
2023/08/23 05:41:31;;;;;;;6.70;6.20;;;;;;;23.00;63.24;98217.31;5049362;28;20468;-79
2023/08/23 05:43:58;;;;;;;6.50;6.00;;;;;;;23.23;62.58;98210.34;5050907;28;20459;-78
2023/08/23 05:46:25;;;;;;;6.30;5.77;;;;;;;23.26;62.28;98215.31;5053319;28;20552;-78
2023/08/23 05:48:52;;;;;;;7.43;6.73;;;;;;;23.22;62.31;98214.22;5058617;28;20793;-77
2023/08/23 05:51:18;;;;;;;7.03;6.43;;;;;;;23.30;61.98;98221.94;5051670;28;21373;-78
2023/08/23 05:53:45;;;;;;;7.00;6.43;;;;;;;23.43;61.26;98229.63;5055915;28;20585;-78
2023/08/23 05:56:12;;;;;;;7.00;6.50;;;;;;;23.49;61.23;98224.91;5053732;28;20546;-77
2023/08/23 05:58:40;;;;;;;7.30;6.70;;;;;;;23.49;61.64;98232.38;5051357;28;20973;-78
2023/08/23 06:01:07;;;;;;;7.23;6.63;;;;;;;23.37;62.20;98239.06;5051228;28;20965;-77
2023/08/23 06:03:33;;;;;;;6.97;6.47;;;;;;;23.25;62.27;98244.06;5056864;28;20530;-78
2023/08/23 06:06:00;;;;;;;8.77;8.03;;;;;;;23.55;61.71;98243.19;5052210;28;20482;-77
2023/08/23 06:08:27;;;;;;;8.20;7.43;;;;;;;23.52;61.30;98248.41;5052432;28;20892;-77
2023/08/23 06:10:54;;;;;;;7.53;6.93;;;;;;;23.80;60.64;98239.50;5058780;28;23346;-81
2023/08/23 06:13:22;;;;;;;7.73;7.20;;;;;;;23.94;60.01;98243.31;5056971;28;20543;-78
2023/08/23 06:15:50;;;;;;;6.70;6.10;;;;;;;24.04;59.90;98243.25;5054420;28;20558;-79
2023/08/23 06:18:17;;;;;;;7.50;6.80;;;;;;;24.03;60.62;98235.25;5053607;28;20446;-77
2023/08/23 06:20:45;;;;;;;7.20;6.70;;;;;;;24.13;59.89;98238.78;5053888;28;20958;-78
2023/08/23 06:23:12;;;;;;;7.90;7.20;;;;;;;24.10;60.29;98233.81;5051175;28;20459;-77
2023/08/23 06:25:39;;;;;;;7.87;7.17;;;;;;;24.30;59.14;98237.63;5053544;28;20478;-78
2023/08/23 06:28:06;;;;;;;8.20;7.50;;;;;;;24.35;59.24;98229.28;5054508;28;20535;-78
2023/08/23 15:26:40;;;;;;;3.73;3.40;;;;;;;36.48;23.99;98120.88;5123779;27;20415;-75
2023/08/23 15:29:07;;;;;;;3.83;2.63;;;;;;;36.71;24.22;98125.78;5105392;28;20475;-86
2023/08/23 15:31:33;;;;;;;3.80;2.40;;;;;;;36.71;23.88;98123.78;5106048;27;20526;-79
2023/08/23 15:34:00;;;;;;;2.97;2.67;;;;;;;36.72;23.16;98127.41;5109429;27;20472;-80
2023/08/23 15:36:28;;;;;;;3.70;3.40;;;;;;;36.27;23.44;98118.44;5111409;28;20455;-78
2023/08/23 15:38:54;;;;;;;3.93;3.13;;;;;;;35.49;24.58;98127.81;5108581;28;20490;-80
2023/08/23 15:41:22;;;;;;;3.00;2.80;;;;;;;34.97;25.44;98128.03;5106992;28;20955;-76
2023/08/23 15:43:51;;;;;;;3.53;3.00;;;;;;;34.99;26.23;98129.31;5107668;28;20453;-76
2023/08/23 15:46:17;;;;;;;3.90;2.80;;;;;;;35.21;25.00;98127.88;5107317;27;21065;-76
2023/08/23 15:48:44;;;;;;;3.50;3.07;;;;;;;34.99;24.79;98125.69;5106487;28;20453;-73
2023/08/23 15:51:11;;;;;;;3.30;3.10;;;;;;;34.79;25.06;98127.53;5106207;27;20551;-74
2023/08/23 15:53:38;;;;;;;4.67;2.90;;;;;;;34.54;25.35;98124.00;5110379;28;20948;-74
2023/08/23 15:56:04;;;;;;;4.90;3.77;;;;;;;34.02;26.49;98133.25;5108259;28;20976;-74
2023/08/23 15:58:31;;;;;;;4.60;3.00;;;;;;;34.28;26.17;98129.22;5117789;28;20458;-75
2023/08/23 16:00:59;;;;;;;4.23;3.00;;;;;;;34.11;26.73;98129.50;5105451;27;20445;-80
2023/08/23 16:03:26;;;;;;;3.40;3.10;;;;;;;33.80;26.87;98130.94;5105857;28;20448;-75
2023/08/23 16:05:54;;;;;;;2.90;2.70;;;;;;;33.59;27.44;98144.25;5104616;28;20480;-74
2023/08/23 16:08:21;;;;;;;3.33;3.03;;;;;;;33.03;27.40;98121.50;5112433;27;20454;-75
2023/08/23 16:10:50;;;;;;;5.37;3.97;;;;;;;32.75;27.69;98132.53;5105574;28;20464;-75
2023/08/23 16:13:17;;;;;;;4.03;3.07;;;;;;;32.24;28.81;98130.97;5107444;28;20456;-75
2023/08/23 16:15:44;;;;;;;3.77;3.47;;;;;;;32.27;29.27;98133.06;5106240;28;20500;-75
2023/08/23 16:18:12;;;;;;;4.10;3.60;;;;;;;31.99;30.71;98128.00;5105835;27;20445;-74
2023/08/23 16:20:39;;;;;;;4.63;3.30;;;;;;;32.00;30.82;98135.22;5107529;27;20488;-75
2023/08/23 16:23:06;;;;;;;4.03;3.63;;;;;;;31.71;31.38;98135.25;5113902;27;20456;-75
2023/08/23 16:25:33;;;;;;;4.43;4.03;;;;;;;31.56;32.21;98133.00;5112671;27;20490;-75
2023/08/23 16:28:00;;;;;;;3.90;3.50;;;;;;;31.36;32.11;98135.41;5107246;28;20503;-75
2023/08/23 16:30:27;;;;;;;4.13;3.50;;;;;;;31.07;32.67;98124.13;5104523;27;20460;-74
2023/08/23 16:32:54;;;;;;;4.57;4.13;;;;;;;30.73;32.61;98134.25;5114344;28;20457;-75
2023/08/23 16:35:22;;;;;;;4.40;4.00;;;;;;;30.81;33.23;98129.00;5110085;28;20484;-76
2023/08/23 16:37:49;;;;;;;4.63;4.30;;;;;;;30.34;34.43;98131.63;5094223;28;20864;-75
2023/08/23 16:40:15;;;;;;;4.10;3.80;;;;;;;29.96;35.89;98123.88;5088112;28;20544;-71
2023/08/23 16:42:42;;;;;;;4.83;3.73;;;;;;;29.96;36.46;98121.06;5090098;28;20466;-72
2023/08/23 16:45:10;;;;;;;5.50;5.10;;;;;;;29.96;35.48;98079.19;5090675;28;20495;-71
2023/08/23 16:47:37;;;;;;;5.03;4.53;;;;;;;30.19;35.13;98113.41;5091866;28;20449;-71
2023/08/23 16:50:05;;;;;;;4.60;4.20;;;;;;;30.44;35.18;98114.56;5093390;28;20489;-71
2023/08/23 16:52:33;;;;;;;4.30;3.90;;;;;;;30.44;35.57;98110.94;5093935;28;21309;-72
2023/08/23 16:55:00;;;;;;;4.63;4.23;;;;;;;30.63;35.48;98112.25;5091567;28;20833;-72
2023/08/23 16:57:27;;;;;;;5.10;4.60;;;;;;;30.52;36.11;98108.13;5092436;28;20506;-67
2023/08/23 16:59:55;;;;;;;4.60;4.20;;;;;;;30.33;36.06;98107.66;5089110;28;20481;-73
2023/08/23 17:02:22;;;;;;;4.57;4.27;;;;;;;30.41;36.16;98109.63;5089166;28;20452;-72
2023/08/23 17:04:49;;;;;;;4.47;4.17;;;;;;;30.26;35.97;98105.34;5092670;28;20472;-73
2023/08/23 17:07:16;;;;;;;7.77;4.10;;;;;;;29.89;36.04;98100.41;5092214;27;20808;-72
2023/08/23 17:09:46;;;;;;;5.13;4.57;;;;;;;29.85;35.78;98105.81;5091716;28;20449;-71
2023/08/23 17:12:13;;;;;;;5.50;4.67;;;;;;;29.77;35.52;98105.78;5086795;28;21166;-72
2023/08/23 17:14:39;;;;;;;4.83;4.43;;;;;;;29.63;35.34;98106.72;5089734;28;20468;-73
2023/08/23 17:17:10;;;;;;;5.27;4.77;;;;;;;29.48;35.62;98104.41;5087122;27;20540;-72
2023/08/23 17:19:37;;;;;;;5.00;4.57;;;;;;;29.46;35.27;98109.50;5087788;28;20460;-72
2023/08/23 17:22:04;;;;;;;4.93;4.47;;;;;;;29.42;35.59;98106.53;5086660;28;20453;-73
2023/08/23 17:24:31;;;;;;;4.83;4.43;;;;;;;29.31;36.73;98107.94;5086307;27;20608;-72
2023/08/23 17:26:59;;;;;;;6.10;4.30;;;;;;;29.29;35.84;98113.00;5090847;28;20560;-73
2023/08/23 17:29:26;;;;;;;4.30;4.00;;;;;;;29.14;36.39;98121.00;5090674;28;20899;-73
2023/08/23 17:31:53;;;;;;;4.33;4.03;;;;;;;28.89;36.61;98119.72;5091465;28;20449;-74
2023/08/23 17:34:20;;;;;;;4.23;3.93;;;;;;;28.79;36.12;98117.16;5092413;28;20508;-73
2023/08/23 17:36:46;;;;;;;5.03;4.63;;;;;;;28.84;36.32;98120.69;5092798;28;20461;-73
2023/08/23 17:39:13;;;;;;;7.20;4.60;;;;;;;28.73;36.41;98117.31;5091118;28;20536;-79
2023/08/23 17:41:41;;;;;;;4.43;4.00;;;;;;;28.68;36.30;98131.34;5089747;28;20820;-80
2023/08/23 17:44:09;;;;;;;4.30;4.00;;;;;;;28.50;37.04;98129.63;5103610;28;20473;-81
2023/08/23 17:46:37;;;;;;;5.37;4.30;;;;;;;28.40;37.43;98135.44;5091602;28;20495;-80
2023/08/23 17:49:04;;;;;;;5.20;4.80;;;;;;;28.41;37.04;98135.09;5088429;28;20482;-81
2023/08/23 17:51:31;;;;;;;5.03;4.20;;;;;;;28.25;37.12;98150.56;5089192;27;20459;-80
2023/08/23 17:53:58;;;;;;;6.17;4.67;;;;;;;28.32;38.08;98145.34;5089244;27;20512;-80
2023/08/23 17:56:25;;;;;;;4.43;4.03;;;;;;;28.13;37.73;98135.50;5094081;28;20503;-80
2023/08/23 17:58:52;;;;;;;4.03;3.70;;;;;;;28.25;38.01;98141.38;5098479;28;21016;-80
2023/08/23 18:01:20;;;;;;;4.20;3.90;;;;;;;28.08;38.45;98134.47;5100670;28;21024;-81
2023/08/23 18:03:47;;;;;;;3.50;3.20;;;;;;;28.13;38.42;98141.06;5100564;28;20483;-79
2023/08/23 18:06:14;;;;;;;4.30;3.90;;;;;;;28.05;37.97;98135.09;5093922;28;20584;-80
2023/08/23 18:08:42;;;;;;;5.80;3.80;;;;;;;27.98;38.21;98145.00;5090664;28;20535;-81
2023/08/23 18:11:09;;;;;;;5.20;4.30;;;;;;;27.88;38.15;98139.69;5087929;28;20557;-80
2023/08/23 18:13:36;;;;;;;4.07;3.77;;;;;;;27.89;38.60;98142.16;5092165;28;20450;-80
2023/08/23 18:16:03;;;;;;;4.53;4.00;;;;;;;27.86;38.36;98139.19;5096505;28;21311;-80
2023/08/23 18:18:31;;;;;;;6.33;4.40;;;;;;;27.70;38.52;98145.06;5102126;28;20468;-79
2023/08/23 18:20:58;;;;;;;5.50;5.00;;;;;;;27.51;39.06;98149.09;5093521;28;21008;-80
2023/08/23 18:23:25;;;;;;;3.83;3.53;;;;;;;27.58;39.07;98142.00;5100261;28;20462;-80
2023/08/23 18:25:52;;;;;;;4.67;4.17;;;;;;;27.51;38.69;98151.88;5090743;28;20508;-80
2023/08/23 18:28:18;;;;;;;5.17;4.10;;;;;;;27.47;39.25;98153.63;5095802;28;21007;-80
2023/08/23 18:30:45;;;;;;;4.20;3.77;;;;;;;27.28;39.58;98165.69;5091424;28;20465;-80
2023/08/23 18:33:14;;;;;;;4.07;3.67;;;;;;;27.20;39.66;98158.03;5093038;28;20461;-81
2023/08/23 18:35:42;;;;;;;4.27;3.97;;;;;;;27.26;39.77;98158.78;5101261;28;20461;-80
2023/08/23 18:38:09;;;;;;;3.73;3.47;;;;;;;27.25;39.57;98160.72;5091774;28;20453;-80
2023/08/23 18:40:36;;;;;;;4.50;3.93;;;;;;;27.10;40.71;98155.44;5096557;28;20502;-80
2023/08/23 18:43:03;;;;;;;3.80;3.50;;;;;;;27.00;40.46;98164.78;5092627;28;20504;-80
2023/08/23 18:45:30;;;;;;;3.90;3.60;;;;;;;26.93;40.65;98163.53;5094227;28;20464;-80
2023/08/23 18:47:57;;;;;;;5.20;4.10;;;;;;;26.85;40.73;98161.44;5096194;28;20448;-80
2023/08/23 18:50:23;;;;;;;4.30;4.00;;;;;;;26.82;41.08;98159.28;5091257;28;20532;-81
2023/08/23 18:52:52;;;;;;;4.07;3.50;;;;;;;26.78;41.17;98171.00;5100642;28;20548;-81
2023/08/23 18:55:19;;;;;;;5.10;4.60;;;;;;;26.67;41.06;98171.47;5098279;28;20976;-80
2023/08/23 18:57:47;;;;;;;5.17;4.10;;;;;;;26.62;41.29;98175.16;5097106;28;20447;-80
2023/08/23 19:00:14;;;;;;;5.50;4.33;;;;;;;26.55;41.84;98177.50;5094566;28;20614;-80
2023/08/23 19:02:41;;;;;;;5.53;4.43;;;;;;;26.65;41.38;98174.53;5091848;28;20976;-80
2023/08/23 19:05:08;;;;;;;5.10;4.60;;;;;;;26.63;41.44;98176.81;5094301;28;20493;-79
2023/08/23 19:07:35;;;;;;;4.37;3.97;;;;;;;26.50;42.26;98182.31;5090392;28;21012;-80
2023/08/23 19:10:04;;;;;;;5.13;4.40;;;;;;;26.59;41.75;98181.31;5093672;28;20585;-80
2023/08/23 19:12:31;;;;;;;3.87;3.57;;;;;;;26.52;42.17;98180.88;5091430;28;20815;-80
2023/08/23 19:14:58;;;;;;;4.67;4.27;;;;;;;26.49;42.37;98184.25;5092488;28;20467;-80
2023/08/23 19:17:25;;;;;;;5.30;4.50;;;;;;;26.52;42.25;98175.31;5099832;28;20463;-80
2023/08/23 19:19:52;;;;;;;6.80;4.27;;;;;;;26.32;43.29;98175.63;5089145;28;20453;-80
2023/08/23 19:22:18;;;;;;;5.00;4.50;;;;;;;26.21;43.67;98176.91;5092729;28;20524;-80
2023/08/23 19:24:45;;;;;;;4.47;4.07;;;;;;;26.18;43.58;98169.19;5089011;28;20545;-80
2023/08/23 19:27:14;;;;;;;5.47;5.00;;;;;;;26.21;43.58;98176.91;5090597;28;20500;-80
2023/08/23 19:29:41;;;;;;;7.10;4.30;;;;;;;26.18;43.92;98172.78;5091705;28;20456;-80
2023/08/23 19:32:11;;;;;;;5.00;4.60;;;;;;;26.07;44.47;98182.38;5097266;28;20564;-80
2023/08/23 19:34:38;;;;;;;4.77;4.27;;;;;;;26.05;45.04;98182.66;5090507;28;20518;-80
2023/08/23 19:37:05;;;;;;;5.33;4.90;;;;;;;26.14;44.97;98184.78;5095621;28;20532;-80
2023/08/23 19:39:32;;;;;;;5.60;5.20;;;;;;;26.00;45.14;98182.72;5090896;28;20467;-83
2023/08/23 19:41:58;;;;;;;5.70;5.10;;;;;;;26.05;45.21;98192.94;5094735;28;20655;-75
2023/08/23 19:44:26;;;;;;;5.27;4.87;;;;;;;25.88;45.74;98190.69;5091047;28;21010;-76
2023/08/23 19:46:53;;;;;;;5.70;5.20;;;;;;;25.78;46.43;98191.63;5090463;28;20529;-74
2023/08/23 19:49:20;;;;;;;5.30;4.90;;;;;;;25.55;46.62;98199.94;5099242;28;20446;-79
2023/08/23 19:51:48;;;;;;;6.07;4.90;;;;;;;25.69;47.03;98192.59;5098864;28;20452;-70
2023/08/23 19:54:15;;;;;;;4.93;4.27;;;;;;;25.67;47.17;98192.88;5095350;28;21105;-80
2023/08/23 19:56:42;;;;;;;5.13;4.73;;;;;;;25.65;47.20;98183.22;5090099;28;20461;-72
2023/08/23 19:59:09;;;;;;;5.80;4.87;;;;;;;25.65;47.67;98199.88;5091958;28;20463;-72
2023/08/23 20:01:38;;;;;;;4.90;4.40;;;;;;;25.62;47.94;98195.72;5093091;28;20463;-72
2023/08/23 20:04:05;;;;;;;5.50;4.67;;;;;;;25.54;47.88;98198.28;5087387;28;20470;-72
2023/08/23 20:06:33;;;;;;;5.50;4.67;;;;;;;25.46;47.96;98185.91;5095093;28;20535;-72
2023/08/23 20:09:00;;;;;;;4.83;4.47;;;;;;;25.51;47.53;98198.88;5100178;28;20543;-72
2023/08/23 20:11:26;;;;;;;5.27;4.77;;;;;;;25.44;47.85;98194.50;5093244;28;20805;-73
2023/08/23 20:13:53;;;;;;;5.23;4.73;;;;;;;25.34;47.88;98196.59;5092755;28;20464;-72
2023/08/23 20:16:20;;;;;;;5.27;4.87;;;;;;;25.34;47.85;98207.69;5095440;28;20467;-72
2023/08/23 20:18:48;;;;;;;7.00;4.70;;;;;;;25.27;48.41;98204.44;5092984;28;20455;-71
2023/08/23 20:21:16;;;;;;;5.80;4.77;;;;;;;25.30;48.42;98201.91;5090657;27;20444;-72
2023/08/23 20:23:43;;;;;;;5.00;4.60;;;;;;;25.25;48.54;98207.50;5097606;27;21143;-72
2023/08/23 20:26:09;;;;;;;5.10;4.70;;;;;;;25.39;47.80;98207.59;5094566;28;20565;-73
2023/08/23 20:28:36;;;;;;;4.90;4.50;;;;;;;25.28;48.29;98211.63;5092948;28;20855;-72
2023/08/23 20:31:03;;;;;;;4.80;4.50;;;;;;;25.13;48.96;98204.28;5095918;28;20543;-72